sensor_id;sensor_type;location;lat;lon;timestamp;pressure;altitude;pressure_sealevel;temperature;humidity
51849;BME280;38952;51.090;-1.832;2023-09-12T00:00:22;100137.59;;;18.81;88.78
51849;BME280;38952;51.090;-1.832;2023-09-12T00:02:48;100138.59;;;18.77;88.99
51849;BME280;38952;51.090;-1.832;2023-09-12T00:05:16;100134.84;;;18.64;89.37
51849;BME280;38952;51.090;-1.832;2023-09-12T00:07:45;100142.50;;;18.67;89.51
51849;BME280;38952;51.090;-1.832;2023-09-12T00:10:10;100143.63;;;18.66;90.18
51849;BME280;38952;51.090;-1.832;2023-09-12T00:12:36;100140.72;;;18.62;89.98
51849;BME280;38952;51.090;-1.832;2023-09-12T00:15:01;100150.16;;;18.70;90.04
51849;BME280;38952;51.090;-1.832;2023-09-12T00:17:29;100146.56;;;18.70;90.08
51849;BME280;38952;51.090;-1.832;2023-09-12T00:19:54;100141.38;;;18.68;90.04
51849;BME280;38952;51.090;-1.832;2023-09-12T00:22:20;100143.16;;;18.73;90.00
51849;BME280;38952;51.090;-1.832;2023-09-12T00:24:48;100153.44;;;18.72;89.91
51849;BME280;38952;51.090;-1.832;2023-09-12T00:27:14;100148.69;;;18.73;90.21
51849;BME280;38952;51.090;-1.832;2023-09-12T00:29:39;100150.31;;;18.74;90.39
51849;BME280;38952;51.090;-1.832;2023-09-12T00:32:05;100149.16;;;18.75;90.39
51849;BME280;38952;51.090;-1.832;2023-09-12T00:34:30;100155.03;;;18.73;90.10
51849;BME280;38952;51.090;-1.832;2023-09-12T00:36:55;100148.34;;;18.74;90.60
51849;BME280;38952;51.090;-1.832;2023-09-12T00:39:21;100154.06;;;18.78;90.48
51849;BME280;38952;51.090;-1.832;2023-09-12T00:41:46;100152.91;;;18.79;90.59
51849;BME280;38952;51.090;-1.832;2023-09-12T00:44:12;100147.53;;;18.82;90.61
51849;BME280;38952;51.090;-1.832;2023-09-12T00:46:38;100160.44;;;18.87;89.91
51849;BME280;38952;51.090;-1.832;2023-09-12T00:49:06;100146.06;;;18.85;90.08
51849;BME280;38952;51.090;-1.832;2023-09-12T00:51:33;100143.13;;;18.81;89.87
51849;BME280;38952;51.090;-1.832;2023-09-12T00:54:01;100135.16;;;18.80;89.98
51849;BME280;38952;51.090;-1.832;2023-09-12T00:56:27;100142.66;;;18.79;90.17
51849;BME280;38952;51.090;-1.832;2023-09-12T00:58:53;100129.97;;;18.70;90.09
51849;BME280;38952;51.090;-1.832;2023-09-12T01:01:21;100128.81;;;18.71;90.45
51849;BME280;38952;51.090;-1.832;2023-09-12T01:03:47;100127.00;;;18.66;89.94
51849;BME280;38952;51.090;-1.832;2023-09-12T01:06:14;100133.06;;;18.59;90.22
51849;BME280;38952;51.090;-1.832;2023-09-12T01:08:46;100123.31;;;18.53;90.16
51849;BME280;38952;51.090;-1.832;2023-09-12T01:11:13;100118.44;;;18.50;90.58
51849;BME280;38952;51.090;-1.832;2023-09-12T01:13:38;100124.91;;;18.54;90.21
51849;BME280;38952;51.090;-1.832;2023-09-12T01:16:04;100126.72;;;18.59;90.36
51849;BME280;38952;51.090;-1.832;2023-09-12T01:18:31;100120.88;;;18.60;90.05
51849;BME280;38952;51.090;-1.832;2023-09-12T01:28:55;100121.63;;;18.78;88.79
51849;BME280;38952;51.090;-1.832;2023-09-12T01:31:22;100115.94;;;18.75;88.77
51849;BME280;38952;51.090;-1.832;2023-09-12T01:33:48;100125.88;;;18.76;88.67
51849;BME280;38952;51.090;-1.832;2023-09-12T01:36:15;100113.00;;;18.71;88.59
51849;BME280;38952;51.090;-1.832;2023-09-12T01:38:41;100119.34;;;18.72;88.37
51849;BME280;38952;51.090;-1.832;2023-09-12T01:41:07;100125.09;;;18.66;88.24
51849;BME280;38952;51.090;-1.832;2023-09-12T01:43:33;100114.81;;;18.58;88.39
51849;BME280;38952;51.090;-1.832;2023-09-12T01:46:01;100105.53;;;18.54;88.64
51849;BME280;38952;51.090;-1.832;2023-09-12T01:48:32;100116.13;;;18.52;88.67
51849;BME280;38952;51.090;-1.832;2023-09-12T01:51:00;100125.56;;;18.51;88.97
51849;BME280;38952;51.090;-1.832;2023-09-12T01:53:26;100115.81;;;18.45;88.93
51849;BME280;38952;51.090;-1.832;2023-09-12T01:55:52;100117.13;;;18.39;89.04
51849;BME280;38952;51.090;-1.832;2023-09-12T01:58:17;100101.50;;;18.25;89.35
51849;BME280;38952;51.090;-1.832;2023-09-12T02:00:43;100115.81;;;18.27;89.41
51849;BME280;38952;51.090;-1.832;2023-09-12T02:03:09;100120.56;;;18.27;89.62
51849;BME280;38952;51.090;-1.832;2023-09-12T02:05:34;100113.38;;;18.26;89.69
51849;BME280;38952;51.090;-1.832;2023-09-12T02:08:01;100119.91;;;18.30;89.45
51849;BME280;38952;51.090;-1.832;2023-09-12T02:10:26;100126.41;;;18.34;89.51
51849;BME280;38952;51.090;-1.832;2023-09-12T02:12:52;100121.50;;;18.31;89.18
51849;BME280;38952;51.090;-1.832;2023-09-12T02:15:17;100122.47;;;18.26;89.03
51849;BME280;38952;51.090;-1.832;2023-09-12T02:17:43;100127.22;;;18.26;89.22
51849;BME280;38952;51.090;-1.832;2023-09-12T02:20:09;100115.50;;;18.20;88.94
51849;BME280;38952;51.090;-1.832;2023-09-12T02:22:35;100119.91;;;18.21;88.88
51849;BME280;38952;51.090;-1.832;2023-09-12T02:25:02;100117.28;;;18.16;89.43
51849;BME280;38952;51.090;-1.832;2023-09-12T02:27:28;100119.06;;;18.12;88.82
51849;BME280;38952;51.090;-1.832;2023-09-12T02:29:53;100101.50;;;17.99;89.03
51849;BME280;38952;51.090;-1.832;2023-09-12T02:35:08;100116.47;;;18.07;89.13
51849;BME280;38952;51.090;-1.832;2023-09-12T02:37:43;100113.69;;;18.07;89.18
51849;BME280;38952;51.090;-1.832;2023-09-12T02:40:09;100129.31;;;18.11;89.12
51849;BME280;38952;51.090;-1.832;2023-09-12T02:42:37;100124.59;;;18.12;89.00
51849;BME280;38952;51.090;-1.832;2023-09-12T02:45:03;100125.25;;;18.09;89.26
51849;BME280;38952;51.090;-1.832;2023-09-12T02:47:29;100125.91;;;18.06;88.85
51849;BME280;38952;51.090;-1.832;2023-09-12T02:49:54;100129.63;;;18.01;89.17
51849;BME280;38952;51.090;-1.832;2023-09-12T02:52:19;100131.75;;;17.95;89.20
51849;BME280;38952;51.090;-1.832;2023-09-12T02:54:45;100113.34;;;17.91;90.01
51849;BME280;38952;51.090;-1.832;2023-09-12T02:57:10;100123.44;;;17.95;89.40
51849;BME280;38952;51.090;-1.832;2023-09-12T02:59:36;100116.28;;;17.94;89.96
51849;BME280;38952;51.090;-1.832;2023-09-12T03:02:02;100114.16;;;17.91;89.35
51849;BME280;38952;51.090;-1.832;2023-09-12T03:04:27;100125.72;;;17.93;89.95
51849;BME280;38952;51.090;-1.832;2023-09-12T03:06:53;100116.41;;;17.89;89.46
51849;BME280;38952;51.090;-1.832;2023-09-12T03:09:19;100124.22;;;17.87;90.02
51849;BME280;38952;51.090;-1.832;2023-09-12T03:11:44;100120.28;;;17.79;89.91
51849;BME280;38952;51.090;-1.832;2023-09-12T03:14:10;100125.00;;;17.79;90.78
51849;BME280;38952;51.090;-1.832;2023-09-12T03:16:35;100121.25;;;17.75;90.39
51849;BME280;38952;51.090;-1.832;2023-09-12T03:19:02;100123.53;;;17.73;90.99
51849;BME280;38952;51.090;-1.832;2023-09-12T03:21:28;100123.53;;;17.73;90.83
51849;BME280;38952;51.090;-1.832;2023-09-12T03:23:54;100115.56;;;17.71;91.04
51849;BME280;38952;51.090;-1.832;2023-09-12T03:26:19;100120.25;;;17.71;91.41
51849;BME280;38952;51.090;-1.832;2023-09-12T03:28:45;100119.13;;;17.72;90.91
51849;BME280;38952;51.090;-1.832;2023-09-12T03:31:12;100125.78;;;17.71;90.79
51849;BME280;38952;51.090;-1.832;2023-09-12T03:33:39;100116.81;;;17.65;91.33
51849;BME280;38952;51.090;-1.832;2023-09-12T03:36:05;100118.31;;;17.62;91.62
51849;BME280;38952;51.090;-1.832;2023-09-12T03:38:42;100102.97;;;17.56;91.34
51849;BME280;38952;51.090;-1.832;2023-09-12T03:41:08;100110.66;;;17.68;91.70
51849;BME280;38952;51.090;-1.832;2023-09-12T03:43:33;100105.63;;;17.61;91.86
51849;BME280;38952;51.090;-1.832;2023-09-12T03:45:59;100110.00;;;17.62;91.46
51849;BME280;38952;51.090;-1.832;2023-09-12T03:48:25;100108.84;;;17.55;91.92
51849;BME280;38952;51.090;-1.832;2023-09-12T03:50:50;100112.09;;;17.48;92.48
51849;BME280;38952;51.090;-1.832;2023-09-12T03:53:16;100103.44;;;17.41;92.49
51849;BME280;38952;51.090;-1.832;2023-09-12T03:55:45;100104.72;;;17.35;92.46
51849;BME280;38952;51.090;-1.832;2023-09-12T03:58:13;100105.84;;;17.34;92.63
51849;BME280;38952;51.090;-1.832;2023-09-12T04:00:39;100108.75;;;17.28;92.81
51849;BME280;38952;51.090;-1.832;2023-09-12T04:03:04;100106.63;;;17.25;93.59
51849;BME280;38952;51.090;-1.832;2023-09-12T04:05:29;100101.25;;;17.20;93.34
51849;BME280;38952;51.090;-1.832;2023-09-12T04:07:55;100101.06;;;17.17;93.90
51849;BME280;38952;51.090;-1.832;2023-09-12T04:10:20;100100.91;;;17.13;93.74
51849;BME280;38952;51.090;-1.832;2023-09-12T04:12:46;100104.97;;;17.16;93.49
51849;BME280;38952;51.090;-1.832;2023-09-12T04:15:11;100100.06;;;17.13;93.93
51849;BME280;38952;51.090;-1.832;2023-09-12T04:17:37;100097.63;;;17.11;93.50
51849;BME280;38952;51.090;-1.832;2023-09-12T04:20:02;100105.41;;;17.09;93.82
51849;BME280;38952;51.090;-1.832;2023-09-12T04:22:29;100095.00;;;17.06;93.99
51849;BME280;38952;51.090;-1.832;2023-09-12T04:24:55;100087.69;;;17.01;93.80
51849;BME280;38952;51.090;-1.832;2023-09-12T04:27:21;100092.19;;;16.97;94.14
51849;BME280;38952;51.090;-1.832;2023-09-12T04:29:46;100086.00;;;16.91;94.51
51849;BME280;38952;51.090;-1.832;2023-09-12T04:32:12;100076.50;;;16.84;94.05
51849;BME280;38952;51.090;-1.832;2023-09-12T04:34:37;100083.47;;;16.81;94.70
51849;BME280;38952;51.090;-1.832;2023-09-12T04:37:03;100075.31;;;16.76;94.80
51849;BME280;38952;51.090;-1.832;2023-09-12T04:39:31;100050.88;;;16.61;94.75
51849;BME280;38952;51.090;-1.832;2023-09-12T04:42:31;100077.59;;;16.74;95.04
51849;BME280;38952;51.090;-1.832;2023-09-12T04:45:18;100074.06;;;16.82;95.13
51849;BME280;38952;51.090;-1.832;2023-09-12T04:47:44;100051.72;;;16.70;94.84
51849;BME280;38952;51.090;-1.832;2023-09-12T04:50:15;100038.56;;;16.67;94.27
51849;BME280;38952;51.090;-1.832;2023-09-12T04:52:41;100059.25;;;16.78;94.33
51849;BME280;38952;51.090;-1.832;2023-09-12T04:55:20;100065.66;;;16.87;94.20
51849;BME280;38952;51.090;-1.832;2023-09-12T04:58:11;100050.66;;;16.80;94.16
51849;BME280;38952;51.090;-1.832;2023-09-12T05:00:39;100088.84;;;17.09;93.93
51849;BME280;38952;51.090;-1.832;2023-09-12T05:03:09;100074.19;;;17.00;93.83
51849;BME280;38952;51.090;-1.832;2023-09-12T05:05:37;100083.44;;;17.04;94.61
51849;BME280;38952;51.090;-1.832;2023-09-12T05:08:02;100093.09;;;17.15;93.85
51849;BME280;38952;51.090;-1.832;2023-09-12T05:10:29;100074.84;;;17.05;94.52
51849;BME280;38952;51.090;-1.832;2023-09-12T05:13:00;100088.19;;;17.12;93.87
51849;BME280;38952;51.090;-1.832;2023-09-12T05:15:29;100063.59;;;16.93;93.93
51849;BME280;38952;51.090;-1.832;2023-09-12T05:18:24;100076.13;;;16.99;94.85
51849;BME280;38952;51.090;-1.832;2023-09-12T05:20:56;100065.84;;;16.91;94.95
51849;BME280;38952;51.090;-1.832;2023-09-12T05:23:24;100066.47;;;16.88;95.29
51849;BME280;38952;51.090;-1.832;2023-09-12T05:25:49;100068.94;;;16.89;95.09
51849;BME280;38952;51.090;-1.832;2023-09-12T05:28:18;100095.81;;;17.06;95.12
51849;BME280;38952;51.090;-1.832;2023-09-12T05:30:43;100073.00;;;16.92;95.08
51849;BME280;38952;51.090;-1.832;2023-09-12T05:33:09;100075.94;;;16.96;95.72
51849;BME280;38952;51.090;-1.832;2023-09-12T05:35:37;100079.34;;;16.92;95.75
51849;BME280;38952;51.090;-1.832;2023-09-12T05:38:02;100086.47;;;16.93;96.16
51849;BME280;38952;51.090;-1.832;2023-09-12T05:40:34;100064.25;;;16.76;96.06
51849;BME280;38952;51.090;-1.832;2023-09-12T05:43:03;100084.16;;;16.87;96.14
51849;BME280;38952;51.090;-1.832;2023-09-12T05:45:38;100100.81;;;16.96;96.76
51849;BME280;38952;51.090;-1.832;2023-09-12T05:48:04;100099.38;;;16.98;96.89
51849;BME280;38952;51.090;-1.832;2023-09-12T05:50:32;100087.81;;;16.96;96.11
51849;BME280;38952;51.090;-1.832;2023-09-12T05:53:05;100065.94;;;16.86;96.04
51849;BME280;38952;51.090;-1.832;2023-09-12T05:55:38;100076.44;;;16.98;96.04
51849;BME280;38952;51.090;-1.832;2023-09-12T05:58:04;100096.97;;;17.14;96.43
51849;BME280;38952;51.090;-1.832;2023-09-12T06:00:40;100078.56;;;17.01;96.24
51849;BME280;38952;51.090;-1.832;2023-09-12T06:03:14;100101.25;;;17.20;96.22
51849;BME280;38952;51.090;-1.832;2023-09-12T06:05:40;100086.09;;;17.09;96.16
51849;BME280;38952;51.090;-1.832;2023-09-12T06:08:05;100102.84;;;17.21;95.66
51849;BME280;38952;51.090;-1.832;2023-09-12T06:10:31;100099.78;;;17.23;95.57
51849;BME280;38952;51.090;-1.832;2023-09-12T06:12:56;100103.84;;;17.25;95.41
51849;BME280;38952;51.090;-1.832;2023-09-12T06:15:22;100105.66;;;17.30;96.03
51849;BME280;38952;51.090;-1.832;2023-09-12T06:17:47;100112.38;;;17.38;95.88
51849;BME280;38952;51.090;-1.832;2023-09-12T06:20:12;100113.97;;;17.39;95.16
51849;BME280;38952;51.090;-1.832;2023-09-12T06:22:40;100118.25;;;17.45;94.85
51849;BME280;38952;51.090;-1.832;2023-09-12T06:28:00;100120.38;;;17.48;95.07
51849;BME280;38952;51.090;-1.832;2023-09-12T06:30:26;100107.19;;;17.45;94.82
51849;BME280;38952;51.090;-1.832;2023-09-12T06:32:56;100122.66;;;17.55;94.81
51849;BME280;38952;51.090;-1.832;2023-09-12T06:35:24;100130.31;;;17.58;94.70
51849;BME280;38952;51.090;-1.832;2023-09-12T06:37:52;100130.97;;;17.63;94.34
51849;BME280;38952;51.090;-1.832;2023-09-12T06:40:17;100122.03;;;17.67;93.67
51849;BME280;38952;51.090;-1.832;2023-09-12T06:42:43;100126.13;;;17.78;93.68
51849;BME280;38952;51.090;-1.832;2023-09-12T06:45:09;100117.69;;;17.83;92.95
51849;BME280;38952;51.090;-1.832;2023-09-12T06:47:34;100120.66;;;17.95;92.95
51849;BME280;38952;51.090;-1.832;2023-09-12T06:50:00;100119.03;;;17.94;92.13
51849;BME280;38952;51.090;-1.832;2023-09-12T06:52:28;100118.41;;;17.98;91.59
51849;BME280;38952;51.090;-1.832;2023-09-12T06:55:10;100113.34;;;18.00;90.93
51849;BME280;38952;51.090;-1.832;2023-09-12T06:57:53;100114.03;;;18.14;90.20
51849;BME280;38952;51.090;-1.832;2023-09-12T07:00:19;100111.41;;;18.26;89.30
51849;BME280;38952;51.090;-1.832;2023-09-12T07:03:08;100106.06;;;18.39;88.54
51849;BME280;38952;51.090;-1.832;2023-09-12T07:05:49;100110.75;;;18.56;88.17
51849;BME280;38952;51.090;-1.832;2023-09-12T07:08:14;100133.88;;;18.86;87.34
51849;BME280;38952;51.090;-1.832;2023-09-12T07:10:48;100131.22;;;19.07;86.04
51849;BME280;38952;51.090;-1.832;2023-09-12T07:13:21;100140.13;;;19.30;85.43
51849;BME280;38952;51.090;-1.832;2023-09-12T07:15:52;100137.06;;;19.53;84.38
51849;BME280;38952;51.090;-1.832;2023-09-12T07:18:17;100122.34;;;19.61;83.66
51849;BME280;38952;51.090;-1.832;2023-09-12T07:20:43;100116.44;;;19.71;83.13
51849;BME280;38952;51.090;-1.832;2023-09-12T07:23:20;100123.50;;;19.90;82.33
51849;BME280;38952;51.090;-1.832;2023-09-12T07:25:50;100139.75;;;20.00;81.43
51849;BME280;38952;51.090;-1.832;2023-09-12T07:28:20;100139.22;;;20.07;81.29
51849;BME280;38952;51.090;-1.832;2023-09-12T07:30:46;100135.66;;;20.07;81.07
51849;BME280;38952;51.090;-1.832;2023-09-12T07:33:19;100148.69;;;20.06;81.15
51849;BME280;38952;51.090;-1.832;2023-09-12T07:35:46;100151.81;;;20.04;80.53
51849;BME280;38952;51.090;-1.832;2023-09-12T07:38:28;100162.25;;;20.08;80.81
51849;BME280;38952;51.090;-1.832;2023-09-12T07:41:03;100141.09;;;19.94;80.21
51849;BME280;38952;51.090;-1.832;2023-09-12T07:43:28;100170.03;;;20.14;80.39
51849;BME280;38952;51.090;-1.832;2023-09-12T07:45:55;100144.44;;;20.09;80.27
51849;BME280;38952;51.090;-1.832;2023-09-12T07:48:21;100140.59;;;20.22;79.96
51849;BME280;38952;51.090;-1.832;2023-09-12T07:50:48;100152.38;;;20.40;79.68
51849;BME280;38952;51.090;-1.832;2023-09-12T07:53:14;100160.09;;;20.55;79.03
51849;BME280;38952;51.090;-1.832;2023-09-12T07:55:39;100142.41;;;20.60;78.56
51849;BME280;38952;51.090;-1.832;2023-09-12T07:58:15;100128.50;;;20.60;78.53
51849;BME280;38952;51.090;-1.832;2023-09-12T08:00:46;100144.25;;;20.56;78.52
51849;BME280;38952;51.090;-1.832;2023-09-12T08:03:11;100173.41;;;20.71;78.30
51849;BME280;38952;51.090;-1.832;2023-09-12T08:05:37;100178.81;;;20.67;78.58
51849;BME280;38952;51.090;-1.832;2023-09-12T08:08:03;100149.72;;;20.44;78.48
51849;BME280;38952;51.090;-1.832;2023-09-12T08:10:29;100167.00;;;20.49;78.54
51849;BME280;38952;51.090;-1.832;2023-09-12T08:12:57;100154.56;;;20.34;78.88
51849;BME280;38952;51.090;-1.832;2023-09-12T08:15:25;100176.47;;;20.48;78.87
51849;BME280;38952;51.090;-1.832;2023-09-12T08:17:50;100172.28;;;20.42;78.40
51849;BME280;38952;51.090;-1.832;2023-09-12T08:20:18;100187.47;;;20.45;78.35
51849;BME280;38952;51.090;-1.832;2023-09-12T08:22:43;100180.63;;;20.42;78.55
51849;BME280;38952;51.090;-1.832;2023-09-12T08:25:09;100193.81;;;20.45;78.29
51849;BME280;38952;51.090;-1.832;2023-09-12T08:27:35;100180.00;;;20.36;78.54
51849;BME280;38952;51.090;-1.832;2023-09-12T08:30:01;100193.22;;;20.39;78.77
51849;BME280;38952;51.090;-1.832;2023-09-12T08:32:26;100193.63;;;20.29;79.01
51849;BME280;38952;51.090;-1.832;2023-09-12T08:34:51;100201.25;;;20.32;79.07
51849;BME280;38952;51.090;-1.832;2023-09-12T08:37:17;100200.59;;;20.35;78.75
51849;BME280;38952;51.090;-1.832;2023-09-12T08:39:44;100202.91;;;20.33;78.93
51849;BME280;38952;51.090;-1.832;2023-09-12T08:42:15;100196.00;;;20.39;78.67
51849;BME280;38952;51.090;-1.832;2023-09-12T08:44:43;100197.88;;;20.27;78.90
51849;BME280;38952;51.090;-1.832;2023-09-12T08:47:09;100192.59;;;20.13;78.81
51849;BME280;38952;51.090;-1.832;2023-09-12T08:49:38;100197.47;;;20.16;79.11
51849;BME280;38952;51.090;-1.832;2023-09-12T08:52:06;100189.34;;;20.11;79.31
51849;BME280;38952;51.090;-1.832;2023-09-12T08:54:32;100193.56;;;20.17;79.16
51849;BME280;38952;51.090;-1.832;2023-09-12T08:56:59;100191.84;;;20.25;79.21
51849;BME280;38952;51.090;-1.832;2023-09-12T08:59:27;100187.19;;;20.37;79.12
51849;BME280;38952;51.090;-1.832;2023-09-12T09:01:53;100192.75;;;20.37;78.74
51849;BME280;38952;51.090;-1.832;2023-09-12T09:04:21;100189.97;;;20.37;79.02
51849;BME280;38952;51.090;-1.832;2023-09-12T09:06:49;100174.47;;;20.36;78.71
51849;BME280;38952;51.090;-1.832;2023-09-12T09:09:15;100172.91;;;20.48;78.54
51849;BME280;38952;51.090;-1.832;2023-09-12T09:11:42;100163.34;;;20.57;77.88
51849;BME280;38952;51.090;-1.832;2023-09-12T09:14:07;100176.91;;;20.80;77.61
51849;BME280;38952;51.090;-1.832;2023-09-12T09:16:32;100182.69;;;21.08;77.31
51849;BME280;38952;51.090;-1.832;2023-09-12T09:19:02;100186.38;;;21.13;76.59
51849;BME280;38952;51.090;-1.832;2023-09-12T09:21:32;100187.91;;;21.10;76.57
51849;BME280;38952;51.090;-1.832;2023-09-12T09:24:00;100191.72;;;21.18;76.68
51849;BME280;38952;51.090;-1.832;2023-09-12T09:26:57;100188.59;;;21.19;76.09
51849;BME280;38952;51.090;-1.832;2023-09-12T09:29:25;100181.63;;;21.59;75.49
51849;BME280;38952;51.090;-1.832;2023-09-12T09:31:52;100186.84;;;21.97;74.12
51849;BME280;38952;51.090;-1.832;2023-09-12T09:34:21;100184.84;;;22.10;73.31
51849;BME280;38952;51.090;-1.832;2023-09-12T09:36:47;100192.94;;;22.28;72.39
51849;BME280;38952;51.090;-1.832;2023-09-12T09:39:16;100194.56;;;22.54;71.83
51849;BME280;38952;51.090;-1.832;2023-09-12T09:41:42;100187.31;;;22.65;70.21
51849;BME280;38952;51.090;-1.832;2023-09-12T09:44:08;100186.25;;;22.98;70.20
51849;BME280;38952;51.090;-1.832;2023-09-12T09:46:35;100187.03;;;23.27;69.61
51849;BME280;38952;51.090;-1.832;2023-09-12T09:49:02;100194.09;;;23.37;68.50
51849;BME280;38952;51.090;-1.832;2023-09-12T09:51:29;100191.47;;;23.44;68.71
51849;BME280;38952;51.090;-1.832;2023-09-12T09:53:55;100185.63;;;23.49;67.93
51849;BME280;38952;51.090;-1.832;2023-09-12T09:56:24;100181.47;;;23.27;68.06
51849;BME280;38952;51.090;-1.832;2023-09-12T09:58:51;100174.06;;;23.18;67.80
51849;BME280;38952;51.090;-1.832;2023-09-12T10:01:19;100184.16;;;23.39;67.92
51849;BME280;38952;51.090;-1.832;2023-09-12T10:03:50;100182.38;;;23.63;67.66
51849;BME280;38952;51.090;-1.832;2023-09-12T10:06:17;100173.72;;;23.52;67.10
51849;BME280;38952;51.090;-1.832;2023-09-12T10:08:44;100178.94;;;23.53;66.46
51849;BME280;38952;51.090;-1.832;2023-09-12T10:11:14;100180.09;;;23.84;66.32
51849;BME280;38952;51.090;-1.832;2023-09-12T10:13:43;100175.69;;;25.13;64.93
51849;BME280;38952;51.090;-1.832;2023-09-12T10:16:11;100179.13;;;26.53;61.46
51849;BME280;38952;51.090;-1.832;2023-09-12T10:19:31;100175.16;;;27.29;57.92
51849;BME280;38952;51.090;-1.832;2023-09-12T10:21:34;100171.25;;;28.48;56.03
51849;BME280;38952;51.090;-1.832;2023-09-12T10:24:03;100176.19;;;28.77;50.83
51849;BME280;38952;51.090;-1.832;2023-09-12T10:26:31;100167.94;;;28.28;49.93
51849;BME280;38952;51.090;-1.832;2023-09-12T10:28:57;100166.88;;;27.88;50.23
51849;BME280;38952;51.090;-1.832;2023-09-12T10:31:24;100165.16;;;27.73;48.15
51849;BME280;38952;51.090;-1.832;2023-09-12T10:33:50;100173.97;;;27.30;49.87
51849;BME280;38952;51.090;-1.832;2023-09-12T10:36:17;100165.94;;;26.87;51.33
51849;BME280;38952;51.090;-1.832;2023-09-12T10:38:44;100172.59;;;25.88;53.31
51849;BME280;38952;51.090;-1.832;2023-09-12T10:41:13;100168.53;;;24.73;56.56
51849;BME280;38952;51.090;-1.832;2023-09-12T10:43:40;100179.59;;;23.95;59.39
51849;BME280;38952;51.090;-1.832;2023-09-12T10:46:07;100176.06;;;23.34;62.37
51849;BME280;38952;51.090;-1.832;2023-09-12T10:48:34;100168.16;;;22.92;63.41
51849;BME280;38952;51.090;-1.832;2023-09-12T10:51:01;100173.31;;;22.49;66.00
51849;BME280;38952;51.090;-1.832;2023-09-12T10:53:30;100172.78;;;22.19;67.76
51849;BME280;38952;51.090;-1.832;2023-09-12T10:56:00;100161.91;;;22.01;68.74
51849;BME280;38952;51.090;-1.832;2023-09-12T10:58:26;100164.00;;;21.92;69.51
51849;BME280;38952;51.090;-1.832;2023-09-12T11:01:21;100170.03;;;21.94;69.46
51849;BME280;38952;51.090;-1.832;2023-09-12T11:03:47;100174.44;;;21.95;70.18
51849;BME280;38952;51.090;-1.832;2023-09-12T11:06:20;100167.94;;;21.91;70.30
51849;BME280;38952;51.090;-1.832;2023-09-12T11:09:14;100171.66;;;21.83;70.47
51849;BME280;38952;51.090;-1.832;2023-09-12T11:11:32;100175.75;;;21.73;70.99
51849;BME280;38952;51.090;-1.832;2023-09-12T11:14:08;100180.22;;;21.65;71.00
51849;BME280;38952;51.090;-1.832;2023-09-12T11:16:33;100179.66;;;21.59;71.53
51849;BME280;38952;51.090;-1.832;2023-09-12T11:19:22;100180.34;;;21.56;73.15
51849;BME280;38952;51.090;-1.832;2023-09-12T11:21:53;100177.09;;;21.54;73.23
51849;BME280;38952;51.090;-1.832;2023-09-12T11:24:20;100174.91;;;21.60;72.21
51849;BME280;38952;51.090;-1.832;2023-09-12T11:27:02;100170.38;;;21.68;72.29
51849;BME280;38952;51.090;-1.832;2023-09-12T11:29:38;100170.94;;;21.86;71.44
51849;BME280;38952;51.090;-1.832;2023-09-12T11:32:04;100175.16;;;21.92;71.57
51849;BME280;38952;51.090;-1.832;2023-09-12T11:34:50;100186.25;;;22.04;71.83
51849;BME280;38952;51.090;-1.832;2023-09-12T11:37:27;100173.50;;;21.91;71.34
51849;BME280;38952;51.090;-1.832;2023-09-12T11:39:55;100180.22;;;21.90;71.47
51849;BME280;38952;51.090;-1.832;2023-09-12T11:42:27;100173.75;;;21.73;72.33
51849;BME280;38952;51.090;-1.832;2023-09-12T11:44:53;100184.44;;;21.71;73.31
51849;BME280;38952;51.090;-1.832;2023-09-12T11:47:20;100191.38;;;21.65;73.84
51849;BME280;38952;51.090;-1.832;2023-09-12T11:49:51;100178.34;;;21.44;74.17
51849;BME280;38952;51.090;-1.832;2023-09-12T11:52:21;100188.66;;;21.44;74.35
51849;BME280;38952;51.090;-1.832;2023-09-12T11:54:56;100173.91;;;21.43;74.78
51849;BME280;38952;51.090;-1.832;2023-09-12T11:57:22;100191.47;;;21.56;75.17
51849;BME280;38952;51.090;-1.832;2023-09-12T11:59:50;100186.28;;;21.67;74.75
51849;BME280;38952;51.090;-1.832;2023-09-12T12:02:27;100165.50;;;21.77;74.43
51849;BME280;38952;51.090;-1.832;2023-09-12T12:04:52;100163.75;;;22.09;73.66
51849;BME280;38952;51.090;-1.832;2023-09-12T12:07:35;100172.63;;;22.40;72.74
51849;BME280;38952;51.090;-1.832;2023-09-12T12:10:06;100175.00;;;22.66;72.14
51849;BME280;38952;51.090;-1.832;2023-09-12T12:12:39;100162.44;;;22.72;72.10
51849;BME280;38952;51.090;-1.832;2023-09-12T12:15:31;100127.88;;;22.61;71.26
51849;BME280;38952;51.090;-1.832;2023-09-12T12:18:28;100176.84;;;23.18;71.27
51849;BME280;38952;51.090;-1.832;2023-09-12T12:21:06;100155.63;;;23.14;70.50
51849;BME280;38952;51.090;-1.832;2023-09-12T12:23:32;100183.72;;;23.37;69.83
51849;BME280;38952;51.090;-1.832;2023-09-12T12:26:09;100155.53;;;23.10;70.11
51849;BME280;38952;51.090;-1.832;2023-09-12T12:28:35;100175.28;;;23.05;70.13
51849;BME280;38952;51.090;-1.832;2023-09-12T12:31:19;100177.50;;;22.99;70.75
51849;BME280;38952;51.090;-1.832;2023-09-12T12:33:48;100166.88;;;22.89;70.69
51849;BME280;38952;51.090;-1.832;2023-09-12T12:36:14;100161.03;;;22.78;71.45
51849;BME280;38952;51.090;-1.832;2023-09-12T12:38:39;100182.81;;;22.89;70.82
51849;BME280;38952;51.090;-1.832;2023-09-12T12:41:07;100171.00;;;22.79;71.37
51849;BME280;38952;51.090;-1.832;2023-09-12T12:43:32;100178.66;;;22.82;69.95
51849;BME280;38952;51.090;-1.832;2023-09-12T12:45:58;100172.88;;;22.75;69.60
51849;BME280;38952;51.090;-1.832;2023-09-12T12:48:34;100174.88;;;22.91;69.16
51849;BME280;38952;51.090;-1.832;2023-09-12T12:51:13;100177.59;;;23.63;68.58
51849;BME280;38952;51.090;-1.832;2023-09-12T12:53:40;100171.41;;;24.21;65.67
51849;BME280;38952;51.090;-1.832;2023-09-12T12:56:06;100172.91;;;24.54;64.35
51849;BME280;38952;51.090;-1.832;2023-09-12T12:58:31;100174.75;;;24.47;63.29
51849;BME280;38952;51.090;-1.832;2023-09-12T13:00:57;100165.94;;;24.09;63.85